Time,TemperatureF,DewpointF,PressureIn,WindDirection,WindDirectionDegrees,WindSpeedMPH,WindSpeedGustMPH,Humidity,HourlyPrecipIn,Conditions,Clouds,dailyrainin,SolarRadiationWatts/m^2,SoftwareType,DateUTC
2013-02-14 00:02:00,32.0,28.0,-100.00,NNW,334,15.0,34.0,86,0.00,,,0.30,0.000000,,2013-02-14 05:02:00,
2013-02-14 00:10:00,32.0,29.0,-100.00,WNW,296,19.0,44.0,89,0.00,,,0.29,0.000000,,2013-02-14 05:10:00,
2013-02-14 00:32:00,32.0,29.0,-100.00,WNW,296,19.0,44.0,89,0.00,,,0.29,0.000000,,2013-02-14 05:32:00,
2013-02-14 00:42:00,32.0,29.0,-100.00,WNW,296,19.0,44.0,89,0.00,,,0.29,0.000000,,2013-02-14 05:42:00,
2013-02-14 00:52:00,32.0,29.0,-100.00,WNW,296,19.0,44.0,89,0.00,,,0.29,0.000000,,2013-02-14 05:52:00,
2013-02-14 01:02:00,32.0,29.0,-100.00,WNW,296,19.0,44.0,89,0.00,,,0.29,0.000000,,2013-02-14 06:02:00,
2013-02-14 01:10:00,32.0,29.0,-100.00,NNW,332,12.0,33.0,88,0.00,,,0.29,0.000000,,2013-02-14 06:10:00,
2013-02-14 01:42:00,32.0,29.0,-100.00,NNW,332,12.0,33.0,88,0.00,,,0.29,0.000000,,2013-02-14 06:42:00,
2013-02-14 01:52:00,32.0,29.0,-100.00,NNW,332,12.0,33.0,88,0.00,,,0.29,0.000000,,2013-02-14 06:52:00,
2013-02-14 02:01:00,32.0,29.0,-100.00,NNW,332,12.0,33.0,88,0.00,,,0.29,0.000000,,2013-02-14 07:01:00,
2013-02-14 02:10:00,31.0,28.0,-100.00,NNW,337,8.0,26.0,88,0.00,,,0.29,0.000000,,2013-02-14 07:10:00,
2013-02-14 02:42:00,31.0,28.0,-100.00,NNW,337,8.0,26.0,88,0.00,,,0.29,0.000000,,2013-02-14 07:42:00,
2013-02-14 02:52:00,31.0,28.0,-100.00,NNW,337,8.0,26.0,88,0.00,,,0.29,0.000000,,2013-02-14 07:52:00,
2013-02-14 03:01:00,31.0,28.0,-100.00,NNW,337,8.0,26.0,88,0.00,,,0.29,0.000000,,2013-02-14 08:01:00,
2013-02-14 03:10:00,31.0,26.0,-100.00,NNW,347,10.0,26.0,80,0.00,,,0.29,0.000000,,2013-02-14 08:10:00,
2013-02-14 03:32:00,31.0,26.0,-100.00,NNW,347,10.0,26.0,80,0.00,,,0.29,0.000000,,2013-02-14 08:32:00,
2013-02-14 03:43:00,31.0,26.0,-100.00,NNW,347,10.0,26.0,80,0.00,,,0.29,0.000000,,2013-02-14 08:43:00,
2013-02-14 03:52:00,31.0,26.0,-100.00,NNW,347,10.0,26.0,80,0.00,,,0.29,0.000000,,2013-02-14 08:52:00,
2013-02-14 04:02:00,31.0,26.0,-100.00,NNW,347,10.0,26.0,80,0.00,,,0.29,0.000000,,2013-02-14 09:02:00,
2013-02-14 04:10:00,30.0,24.0,-100.00,NNW,333,10.0,29.0,79,0.00,,,0.29,0.000000,,2013-02-14 09:10:00,
2013-02-14 04:32:00,30.0,24.0,-100.00,NNW,333,10.0,29.0,79,0.00,,,0.29,0.000000,,2013-02-14 09:32:00,
2013-02-14 04:42:00,30.0,24.0,-100.00,NNW,333,10.0,29.0,79,0.00,,,0.29,0.000000,,2013-02-14 09:42:00,
2013-02-14 04:52:00,30.0,24.0,-100.00,NNW,333,10.0,29.0,79,0.00,,,0.29,0.000000,,2013-02-14 09:52:00,
2013-02-14 05:02:00,30.0,24.0,-100.00,NNW,333,10.0,29.0,79,0.00,,,0.29,0.000000,,2013-02-14 10:02:00,
2013-02-14 05:10:00,30.0,25.0,-100.00,NNW,335,8.0,20.0,80,0.00,,,0.15,0.000000,,2013-02-14 10:10:00,
2013-02-14 05:32:00,30.0,25.0,-100.00,NNW,335,8.0,20.0,80,0.00,,,0.15,0.000000,,2013-02-14 10:32:00,
2013-02-14 05:42:00,30.0,25.0,-100.00,NNW,335,8.0,20.0,80,0.00,,,0.15,0.000000,,2013-02-14 10:42:00,
2013-02-14 05:52:00,30.0,25.0,-100.00,NNW,335,8.0,20.0,80,0.00,,,0.15,0.000000,,2013-02-14 10:52:00,
2013-02-14 06:02:00,30.0,25.0,-100.00,NNW,335,8.0,20.0,80,0.00,,,0.15,0.000000,,2013-02-14 11:02:00,
2013-02-14 06:10:00,29.0,23.0,-100.00,NNW,334,10.0,22.0,79,0.00,,,0.11,0.000000,,2013-02-14 11:10:00,
2013-02-14 06:32:00,29.0,23.0,-100.00,NNW,334,10.0,22.0,79,0.00,,,0.11,0.000000,,2013-02-14 11:32:00,
2013-02-14 06:42:00,29.0,23.0,-100.00,NNW,334,10.0,22.0,79,0.00,,,0.11,0.000000,,2013-02-14 11:42:00,
2013-02-14 06:52:00,29.0,23.0,-100.00,NNW,334,10.0,22.0,79,0.00,,,0.11,0.000000,,2013-02-14 11:52:00,
2013-02-14 07:02:00,29.0,23.0,-100.00,NNW,334,10.0,22.0,79,0.00,,,0.11,0.000000,,2013-02-14 12:02:00,
2013-02-14 07:10:00,28.0,22.0,-100.00,NW,320,7.0,19.0,78,0.00,,,0.10,0.000000,,2013-02-14 12:10:00,
2013-02-14 07:32:00,28.0,22.0,-100.00,NW,320,7.0,19.0,78,0.00,,,0.10,0.000000,,2013-02-14 12:32:00,
2013-02-14 07:42:00,28.0,22.0,-100.00,NW,320,7.0,19.0,78,0.00,,,0.10,0.000000,,2013-02-14 12:42:00,
2013-02-14 07:53:00,28.0,22.0,-100.00,NW,320,7.0,19.0,78,0.00,,,0.10,0.000000,,2013-02-14 12:53:00,
2013-02-14 08:02:00,28.0,22.0,-100.00,NW,320,7.0,19.0,78,0.00,,,0.10,0.000000,,2013-02-14 13:02:00,
2013-02-14 09:10:00,32.0,26.0,-100.00,NNW,348,2.0,8.0,79,-99.99,,,0.09,133.000000,,2013-02-14 14:10:00,
2013-02-14 09:42:00,32.0,26.0,-100.00,NNW,348,2.0,8.0,79,-99.99,,,0.09,133.000000,,2013-02-14 14:42:00,
2013-02-14 09:52:00,32.0,26.0,-100.00,NNW,348,2.0,8.0,79,-99.99,,,0.09,133.000000,,2013-02-14 14:52:00,
2013-02-14 10:02:00,32.0,26.0,-100.00,NNW,348,2.0,8.0,79,-99.99,,,0.09,133.000000,,2013-02-14 15:02:00,
2013-02-14 10:10:00,35.0,26.0,-100.00,WSW,245,5.0,9.0,70,0.00,,,0.08,242.000000,,2013-02-14 15:10:00,
2013-02-14 10:32:00,35.0,26.0,-100.00,WSW,245,5.0,9.0,70,0.00,,,0.08,242.000000,,2013-02-14 15:32:00,
2013-02-14 10:42:00,35.0,26.0,-100.00,WSW,245,5.0,9.0,70,0.00,,,0.08,242.000000,,2013-02-14 15:42:00,
2013-02-14 10:52:00,35.0,26.0,-100.00,WSW,245,5.0,9.0,70,0.00,,,0.08,242.000000,,2013-02-14 15:52:00,
2013-02-14 11:02:00,35.0,26.0,-100.00,WSW,245,5.0,9.0,70,0.00,,,0.08,242.000000,,2013-02-14 16:02:00,
2013-02-14 11:10:00,39.0,25.0,-100.00,West,259,3.0,12.0,57,0.00,,,0.06,379.000000,,2013-02-14 16:10:00,
2013-02-14 11:42:00,39.0,25.0,-100.00,West,259,3.0,12.0,57,0.00,,,0.06,379.000000,,2013-02-14 16:42:00,
2013-02-14 11:52:00,39.0,25.0,-100.00,West,259,3.0,12.0,57,0.00,,,0.06,379.000000,,2013-02-14 16:52:00,
2013-02-14 12:01:00,39.0,25.0,-100.00,West,259,3.0,12.0,57,0.00,,,0.06,379.000000,,2013-02-14 17:01:00,
2013-02-14 12:10:00,42.0,23.0,-100.00,WSW,250,7.0,12.0,47,0.00,,,0.06,502.000000,,2013-02-14 17:10:00,
2013-02-14 12:32:00,42.0,23.0,-100.00,WSW,250,7.0,12.0,47,0.00,,,0.06,502.000000,,2013-02-14 17:32:00,
2013-02-14 12:42:00,42.0,23.0,-100.00,WSW,250,7.0,12.0,47,0.00,,,0.06,502.000000,,2013-02-14 17:42:00,
2013-02-14 12:52:00,42.0,23.0,-100.00,WSW,250,7.0,12.0,47,0.00,,,0.06,502.000000,,2013-02-14 17:52:00,
2013-02-14 13:02:00,42.0,23.0,-100.00,WSW,250,7.0,12.0,47,0.00,,,0.06,502.000000,,2013-02-14 18:02:00,
2013-02-14 13:10:00,44.0,22.0,-100.00,WNW,295,6.0,19.0,42,0.00,,,0.06,481.000000,,2013-02-14 18:10:00,
2013-02-14 13:42:00,44.0,22.0,-100.00,WNW,295,6.0,19.0,42,0.00,,,0.06,481.000000,,2013-02-14 18:42:00,
2013-02-14 13:52:00,44.0,22.0,-100.00,WNW,295,6.0,19.0,42,0.00,,,0.06,481.000000,,2013-02-14 18:52:00,
2013-02-14 14:02:00,44.0,22.0,-100.00,WNW,295,6.0,19.0,42,0.00,,,0.06,481.000000,,2013-02-14 19:02:00,
2013-02-14 14:10:00,45.0,24.0,-100.00,South,182,9.0,17.0,43,0.00,,,0.06,446.000000,,2013-02-14 19:10:00,
2013-02-14 14:42:00,45.0,24.0,-100.00,South,182,9.0,17.0,43,0.00,,,0.06,446.000000,,2013-02-14 19:42:00,
2013-02-14 14:52:00,45.0,24.0,-100.00,South,182,9.0,17.0,43,0.00,,,0.06,446.000000,,2013-02-14 19:52:00,
2013-02-14 15:01:00,45.0,24.0,-100.00,South,182,9.0,17.0,43,0.00,,,0.06,446.000000,,2013-02-14 20:01:00,
2013-02-14 15:10:00,47.0,26.0,-100.00,South,178,9.0,16.0,44,0.00,,,0.04,386.000000,,2013-02-14 20:10:00,
2013-02-14 15:32:00,47.0,26.0,-100.00,South,178,9.0,16.0,44,0.00,,,0.04,386.000000,,2013-02-14 20:32:00,
2013-02-14 15:42:00,47.0,26.0,-100.00,South,178,9.0,16.0,44,0.00,,,0.04,386.000000,,2013-02-14 20:42:00,
2013-02-14 15:52:00,47.0,26.0,-100.00,South,178,9.0,16.0,44,0.00,,,0.04,386.000000,,2013-02-14 20:52:00,
2013-02-14 16:02:00,47.0,26.0,-100.00,South,178,9.0,16.0,44,0.00,,,0.04,386.000000,,2013-02-14 21:02:00,
2013-02-14 16:10:00,49.0,27.0,-100.00,SSE,158,9.0,20.0,42,0.00,,,0.04,297.000000,,2013-02-14 21:10:00,
2013-02-14 16:42:00,49.0,27.0,-100.00,SSE,158,9.0,20.0,42,0.00,,,0.04,297.000000,,2013-02-14 21:42:00,
2013-02-14 16:52:00,49.0,27.0,-100.00,SSE,158,9.0,20.0,42,0.00,,,0.04,297.000000,,2013-02-14 21:52:00,
2013-02-14 17:02:00,49.0,27.0,-100.00,SSE,158,9.0,20.0,42,0.00,,,0.04,297.000000,,2013-02-14 22:02:00,
2013-02-14 17:10:00,47.0,16.0,-100.00,West,269,9.0,20.0,29,0.00,,,0.03,188.000000,,2013-02-14 22:10:00,
2013-02-14 17:32:00,47.0,16.0,-100.00,West,269,9.0,20.0,29,0.00,,,0.03,188.000000,,2013-02-14 22:32:00,
2013-02-14 17:42:00,47.0,16.0,-100.00,West,269,9.0,20.0,29,0.00,,,0.03,188.000000,,2013-02-14 22:42:00,
2013-02-14 17:52:00,47.0,16.0,-100.00,West,269,9.0,20.0,29,0.00,,,0.03,188.000000,,2013-02-14 22:52:00,
2013-02-14 18:01:00,47.0,16.0,-100.00,West,269,9.0,20.0,29,0.00,,,0.03,188.000000,,2013-02-14 23:01:00,
2013-02-14 18:32:00,41.0,13.0,-100.00,WSW,251,13.0,19.0,31,0.00,,,0.00,44.000000,,2013-02-14 23:32:00,
2013-02-14 19:32:00,38.0,16.0,-100.00,WNW,302,6.0,14.0,41,0.00,,,0.00,0.000000,,2013-02-15 00:32:00,
2013-02-14 19:42:00,38.0,16.0,-100.00,WNW,302,6.0,14.0,41,0.00,,,0.00,0.000000,,2013-02-15 00:42:00,
2013-02-14 19:52:00,38.0,16.0,-100.00,WNW,302,6.0,14.0,41,0.00,,,0.00,0.000000,,2013-02-15 00:52:00,
2013-02-14 20:02:00,38.0,16.0,-100.00,WNW,302,6.0,14.0,41,0.00,,,0.00,0.000000,,2013-02-15 01:02:00,
2013-02-14 21:10:00,35.0,22.0,-100.00,West,280,7.0,14.0,59,-99.99,,,0.00,0.000000,,2013-02-15 02:10:00,
2013-02-14 21:32:00,35.0,22.0,-100.00,West,280,7.0,14.0,59,-99.99,,,0.00,0.000000,,2013-02-15 02:32:00,
2013-02-14 21:42:00,35.0,22.0,-100.00,West,280,7.0,14.0,59,-99.99,,,0.00,0.000000,,2013-02-15 02:42:00,
2013-02-14 21:52:00,35.0,22.0,-100.00,West,280,7.0,14.0,59,-99.99,,,0.00,0.000000,,2013-02-15 02:52:00,
2013-02-14 22:02:00,35.0,22.0,-100.00,West,280,7.0,14.0,59,-99.99,,,0.00,0.000000,,2013-02-15 03:02:00,
2013-02-14 22:10:00,34.0,23.0,-100.00,WNW,290,5.0,9.0,64,0.00,,,0.00,0.000000,,2013-02-15 03:10:00,
2013-02-14 22:32:00,34.0,23.0,-100.00,WNW,290,5.0,9.0,64,0.00,,,0.00,0.000000,,2013-02-15 03:32:00,
2013-02-14 22:42:00,34.0,23.0,-100.00,WNW,290,5.0,9.0,64,0.00,,,0.00,0.000000,,2013-02-15 03:42:00,
2013-02-14 22:52:00,34.0,23.0,-100.00,WNW,290,5.0,9.0,64,0.00,,,0.00,0.000000,,2013-02-15 03:52:00,
2013-02-14 23:02:00,34.0,23.0,-100.00,WNW,290,5.0,9.0,64,0.00,,,0.00,0.000000,,2013-02-15 04:02:00,
2013-02-14 23:10:00,32.0,23.0,-100.00,SSW,210,1.0,6.0,69,0.00,,,0.00,0.000000,,2013-02-15 04:10:00,
2013-02-14 23:32:00,32.0,23.0,-100.00,SSW,210,1.0,6.0,69,0.00,,,0.00,0.000000,,2013-02-15 04:32:00,
2013-02-14 23:42:00,32.0,23.0,-100.00,SSW,210,1.0,6.0,69,0.00,,,0.00,0.000000,,2013-02-15 04:42:00,
2013-02-14 23:52:00,32.0,23.0,-100.00,SSW,210,1.0,6.0,69,0.00,,,0.00,0.000000,,2013-02-15 04:52:00,